createdAt,value
2022-08-12T00:00:15.953Z,99433.66
2022-08-12T00:03:20.826Z,99438.88
2022-08-12T00:06:26.524Z,99442.00
2022-08-12T00:09:30.374Z,99430.50
2022-08-12T00:12:34.409Z,99430.50
2022-08-12T00:15:38.126Z,99430.50
2022-08-12T00:18:42.032Z,99433.28
2022-08-12T00:21:46.425Z,99436.09
2022-08-12T00:24:50.653Z,99439.66
2022-08-12T00:27:54.521Z,99432.91
2022-08-12T00:30:58.662Z,99434.91
2022-08-12T00:34:05.284Z,99434.91
2022-08-12T00:37:14.824Z,99440.88
2022-08-12T00:40:19.236Z,99451.22
2022-08-12T00:43:07.116Z,99442.84
2022-08-12T00:46:11.485Z,99447.22
2022-08-12T00:48:57.610Z,99441.28
2022-08-12T00:52:02.211Z,99435.31
2022-08-12T00:54:57.234Z,99440.06
2022-08-12T00:57:47.827Z,99435.69
2022-08-12T01:00:35.376Z,99431.31
2022-08-12T01:03:21.849Z,99440.50
2022-08-12T01:06:26.684Z,99436.13
2022-08-12T01:09:32.943Z,99436.13
2022-08-12T01:12:19.430Z,99431.78
2022-08-12T01:15:05.954Z,99427.75
2022-08-12T01:17:51.972Z,99429.75
2022-08-12T01:20:43.662Z,99433.34
2022-08-12T01:23:39.715Z,99431.78
2022-08-12T01:26:25.943Z,99432.56
2022-08-12T01:29:15.553Z,99426.19
2022-08-12T01:32:05.517Z,99436.13
2022-08-12T01:34:54.118Z,99439.31
2022-08-12T01:38:02.631Z,99432.97
2022-08-12T01:40:51.571Z,99429.00
2022-08-12T01:43:37.942Z,99421.06
2022-08-12T01:46:38.119Z,99428.19
2022-08-12T01:49:35.533Z,99421.06
2022-08-12T01:52:55.150Z,99422.59
2022-08-12T01:55:45.212Z,99427.41
2022-08-12T01:58:55.349Z,99419.50
2022-08-12T02:01:42.254Z,99417.50
2022-08-12T02:05:20.121Z,99412.34
2022-08-12T02:08:45.203Z,99416.78
2022-08-12T02:11:32.948Z,99412.50
2022-08-12T02:14:24.556Z,99410.50
2022-08-12T02:17:55.968Z,99404.56
2022-08-12T02:20:51.507Z,99401.78
2022-08-12T02:23:40.140Z,99406.22
2022-08-12T02:26:30.253Z,99401.41
2022-08-12T02:29:19.938Z,99403.38
2022-08-12T02:32:06.087Z,99397.44
2022-08-12T02:34:52.749Z,99395.44
2022-08-12T02:37:43.372Z,99395.06
2022-08-12T02:40:29.686Z,99395.06
2022-08-12T02:43:40.336Z,99389.84
2022-08-12T02:46:34.697Z,99393.41
2022-08-12T02:49:26.099Z,99390.63
2022-08-12T02:52:14.442Z,99377.47
2022-08-12T02:55:09.799Z,99377.47
2022-08-12T02:57:55.682Z,99380.72
2022-08-12T03:00:42.785Z,99379.06
2022-08-12T03:03:33.657Z,99371.59
2022-08-12T03:06:27.336Z,99385.50
2022-08-12T03:09:16.571Z,99374.38
2022-08-12T03:12:09.643Z,99375.16
2022-08-12T03:15:10.004Z,99380.72
2022-08-12T03:18:26.919Z,99385.16
2022-08-12T03:21:17.268Z,99387.94
2022-08-12T03:24:26.369Z,99383.16
2022-08-12T03:27:15.198Z,99378.72
2022-08-12T03:30:00.675Z,99387.06
2022-08-12T03:32:51.942Z,99393.41
2022-08-12T03:35:42.468Z,99387.84
2022-08-12T03:38:29.655Z,99393.00
2022-08-12T03:41:34.998Z,99399.78
2022-08-12T03:44:51.415Z,99402.56
2022-08-12T03:48:19.328Z,99398.56
2022-08-12T03:51:24.032Z,99410.13
2022-08-12T03:54:28.402Z,99397.44
2022-08-12T03:57:32.115Z,99400.66
2022-08-12T04:00:24.167Z,99402.22
2022-08-12T04:03:29.939Z,99401.41
2022-08-12T04:06:16.223Z,99406.22
2022-08-12T04:09:22.178Z,99414.56
2022-08-12T04:12:34.800Z,99412.56
2022-08-12T04:15:25.864Z,99407.00
2022-08-12T04:18:18.688Z,99414.56
2022-08-12T04:21:10.039Z,99420.13
2022-08-12T04:23:56.210Z,99426.50
2022-08-12T04:26:41.702Z,99424.94
2022-08-12T04:30:31.318Z,99410.22
2022-08-12T04:32:39.617Z,99411.00
2022-08-12T04:35:28.237Z,99421.38
2022-08-12T04:38:13.931Z,99428.50
2022-08-12T04:41:00.711Z,99410.22
2022-08-12T04:43:55.356Z,99420.13
2022-08-12T04:46:46.999Z,99422.94
2022-08-12T04:49:34.575Z,99407.44
2022-08-12T04:52:19.899Z,99408.63
2022-08-12T04:55:05.802Z,99413.00
2022-08-12T04:57:51.550Z,99407.09
2022-08-12T05:00:38.587Z,99418.22
2022-08-12T05:03:25.785Z,99406.63
2022-08-12T05:06:11.274Z,99408.63
2022-08-12T05:09:10.920Z,99417.41
2022-08-12T05:11:57.774Z,99418.22
2022-08-12T05:14:42.998Z,99407.09
2022-08-12T05:17:28.576Z,99418.22
2022-08-12T05:20:20.370Z,99419.44
2022-08-12T05:23:17.539Z,99416.22
2022-08-12T05:26:03.066Z,99411.84
2022-08-12T05:28:50.982Z,99407.50
2022-08-12T05:31:42.544Z,99403.50
2022-08-12T05:34:34.606Z,99408.28
2022-08-12T05:37:23.367Z,99413.44
2022-08-12T05:40:11.534Z,99405.50
2022-08-12T05:42:57.051Z,99416.63
2022-08-12T05:45:44.867Z,99430.16
2022-08-12T05:48:31.010Z,99419.88
2022-08-12T05:51:16.889Z,99415.09
2022-08-12T05:54:02.062Z,99415.88
2022-08-12T05:56:48.364Z,99427.38
2022-08-12T05:59:33.886Z,99426.22
2022-08-12T06:02:19.352Z,99427.78
2022-08-12T06:05:07.483Z,99420.66
2022-08-12T06:08:02.076Z,99422.66
2022-08-12T06:10:50.300Z,99432.56
2022-08-12T06:13:54.101Z,99432.16
2022-08-12T06:16:39.828Z,99427.78
2022-08-12T06:19:25.256Z,99429.78
2022-08-12T06:22:30.764Z,99426.22
2022-08-12T06:25:21.595Z,99432.56
2022-08-12T06:28:17.486Z,99437.38
2022-08-12T06:31:24.888Z,99430.22
2022-08-12T06:35:23.651Z,99429.44
2022-08-12T06:37:18.105Z,99428.66
2022-08-12T06:40:04.659Z,99431.44
2022-08-12T06:42:51.533Z,99425.88
2022-08-12T06:45:46.717Z,99430.22
2022-08-12T06:48:32.942Z,99442.22
2022-08-12T06:51:20.730Z,99446.22
2022-08-12T06:54:07.326Z,99441.88
2022-08-12T06:57:04.125Z,99433.50
2022-08-12T06:59:51.128Z,99445.00
2022-08-12T07:02:37.257Z,99437.06
2022-08-12T07:05:27.145Z,99441.00
2022-08-12T07:08:13.580Z,99433.00
2022-08-12T07:11:04.412Z,99436.59
2022-08-12T07:14:02.566Z,99434.22
2022-08-12T07:17:01.964Z,99432.56
2022-08-12T07:19:48.822Z,99433.00
2022-08-12T07:22:34.556Z,99437.44
2022-08-12T07:25:37.120Z,99439.38
2022-08-12T07:28:29.412Z,99452.06
2022-08-12T07:31:17.216Z,99440.16
2022-08-12T07:34:04.280Z,99446.22
2022-08-12T07:36:49.587Z,99450.94
2022-08-12T07:39:35.139Z,99454.91
2022-08-12T07:42:20.344Z,99448.16
2022-08-12T07:45:07.437Z,99456.88
2022-08-12T07:47:53.049Z,99459.66
2022-08-12T07:50:38.469Z,99456.88
2022-08-12T07:53:23.757Z,99449.28
2022-08-12T07:56:10.524Z,99446.84
2022-08-12T07:58:59.236Z,99448.88
2022-08-12T08:01:44.729Z,99447.72
2022-08-12T08:04:48.627Z,99442.94
2022-08-12T08:07:34.009Z,99447.72
2022-08-12T08:10:20.528Z,99446.09
2022-08-12T08:13:06.561Z,99445.63
2022-08-12T08:16:09.194Z,99442.84
2022-08-12T08:18:56.042Z,99439.28
2022-08-12T08:21:42.890Z,99442.06
2022-08-12T08:24:29.100Z,99434.94
2022-08-12T08:27:14.426Z,99432.94
2022-08-12T08:30:03.099Z,99440.88
2022-08-12T08:32:48.765Z,99443.28
2022-08-12T08:35:46.579Z,99436.84
2022-08-12T08:38:35.442Z,99436.44
2022-08-12T08:42:17.225Z,99428.84
2022-08-12T08:44:44.978Z,99418.50
2022-08-12T08:47:30.500Z,99424.41
2022-08-12T08:50:16.517Z,99418.84
2022-08-12T08:53:01.978Z,99422.00
2022-08-12T08:56:04.769Z,99417.19
2022-08-12T08:58:50.543Z,99419.56
2022-08-12T09:01:38.669Z,99415.53
2022-08-12T09:05:13.509Z,99426.69
2022-08-12T09:07:51.708Z,99417.56
2022-08-12T09:10:35.787Z,99414.75
2022-08-12T09:14:10.505Z,99417.91
2022-08-12T09:16:42.714Z,99416.72
2022-08-12T09:19:29.320Z,99414.69
2022-08-12T09:22:18.507Z,99412.75
2022-08-12T09:25:07.084Z,99413.56
2022-08-12T09:28:03.713Z,99409.97
2022-08-12T09:31:00.437Z,99406.00
2022-08-12T09:34:27.765Z,99401.97
2022-08-12T09:37:00.964Z,99403.19
2022-08-12T09:40:03.475Z,99402.78
2022-08-12T09:43:17.796Z,99399.53
2022-08-12T09:46:14.287Z,99398.75
2022-08-12T09:49:13.174Z,99386.06
2022-08-12T09:52:01.787Z,99387.63
2022-08-12T09:54:48.282Z,99379.25
2022-08-12T09:58:45.015Z,99380.50
2022-08-12T10:00:52.228Z,99392.84
2022-08-12T10:04:03.122Z,99388.03
2022-08-12T10:06:55.139Z,99386.47
2022-08-12T10:09:58.379Z,99379.69
2022-08-12T10:13:06.982Z,99379.69
2022-08-12T10:16:02.574Z,99375.69
2022-08-12T10:19:06.081Z,99365.31
2022-08-12T10:22:03.315Z,99358.19
2022-08-12T10:25:17.358Z,99357.38
2022-08-12T10:28:25.249Z,99362.19
2022-08-12T10:31:16.485Z,99361.75
2022-08-12T10:34:07.512Z,99361.75
2022-08-12T10:37:20.959Z,99358.19
2022-08-12T10:40:17.297Z,99361.75
2022-08-12T10:43:24.061Z,99354.19
2022-08-12T10:46:16.954Z,99353.41
2022-08-12T10:49:07.073Z,99352.94
2022-08-12T10:52:34.006Z,99348.19
2022-08-12T10:55:13.645Z,99346.59
2022-08-12T10:58:14.397Z,99339.91
2022-08-12T11:03:01.489Z,99343.91
2022-08-12T11:04:30.941Z,99343.09
2022-08-12T11:08:34.517Z,99337.53
2022-08-12T11:10:26.489Z,99332.41
2022-08-12T11:13:12.888Z,99333.97
2022-08-12T11:16:19.062Z,99333.19
2022-08-12T11:19:05.631Z,99327.63
2022-08-12T11:21:57.538Z,99320.50
2022-08-12T11:24:51.719Z,99313.63
2022-08-12T11:27:37.336Z,99312.81
2022-08-12T11:30:31.223Z,99302.47
2022-08-12T11:33:24.376Z,99309.97
2022-08-12T11:36:22.603Z,99301.25
2022-08-12T11:39:07.930Z,99304.81
2022-08-12T11:41:57.827Z,99309.59
2022-08-12T11:44:45.348Z,99302.81
2022-08-12T11:47:30.769Z,99304.03
2022-08-12T11:50:18.992Z,99301.59
2022-08-12T11:53:05.527Z,99295.25
2022-08-12T11:56:11.519Z,99291.22
2022-08-12T12:02:05.236Z,99288.44
2022-08-12T12:04:52.941Z,99290.03
2022-08-12T12:08:39.005Z,99287.25
2022-08-12T12:10:45.637Z,99276.09
2022-08-12T12:14:08.509Z,99281.66
2022-08-12T12:16:39.763Z,99260.16
2022-08-12T12:19:27.123Z,99267.75
2022-08-12T12:22:31.154Z,99266.94
2022-08-12T12:25:16.354Z,99259.38
2022-08-12T12:28:06.435Z,99263.75
2022-08-12T12:30:54.919Z,99265.72
2022-08-12T12:33:46.238Z,99262.94
2022-08-12T12:36:47.743Z,99263.75
2022-08-12T12:39:54.727Z,99257.38
2022-08-12T12:42:55.665Z,99254.59
2022-08-12T12:45:46.372Z,99260.97
2022-08-12T12:48:31.875Z,99261.75
2022-08-12T12:51:48.276Z,99267.31
2022-08-12T12:54:29.114Z,99261.34
2022-08-12T12:57:14.856Z,99254.59
2022-08-12T13:00:18.033Z,99251.41
2022-08-12T13:03:03.459Z,99256.16
2022-08-12T13:05:53.840Z,99250.59
2022-08-12T13:08:39.967Z,99245.03
2022-08-12T13:11:40.762Z,99251.81
2022-08-12T13:14:29.248Z,99233.09
2022-08-12T13:17:19.846Z,99230.31
2022-08-12T13:20:06.106Z,99239.44
2022-08-12T13:22:53.289Z,99229.50
2022-08-12T13:25:41.572Z,99221.97
2022-08-12T13:28:30.443Z,99230.31
2022-08-12T13:31:16.385Z,99219.94
2022-08-12T13:34:32.315Z,99217.16
2022-08-12T13:37:09.818Z,99210.38
2022-08-12T13:39:55.756Z,99203.56
2022-08-12T13:42:41.173Z,99194.78
2022-08-12T13:45:31.558Z,99201.13
2022-08-12T13:48:19.862Z,99195.56
2022-08-12T13:51:05.651Z,99197.94
2022-08-12T13:53:58.326Z,99190.00
2022-08-12T13:56:50.027Z,99199.94
2022-08-12T13:59:48.051Z,99191.56
2022-08-12T14:02:34.330Z,99190.34
2022-08-12T14:05:31.294Z,99193.13
2022-08-12T14:08:24.170Z,99193.56
2022-08-12T14:11:12.393Z,99185.53
2022-08-12T14:14:02.642Z,99183.56
2022-08-12T14:16:52.165Z,99186.34
2022-08-12T14:19:48.758Z,99197.03
2022-08-12T14:22:39.085Z,99191.47
2022-08-12T14:25:34.903Z,99189.47
2022-08-12T14:28:23.302Z,99186.66
2022-08-12T14:31:18.346Z,99169.94
2022-08-12T14:34:04.969Z,99171.19
2022-08-12T14:36:50.429Z,99171.19
2022-08-12T14:39:35.847Z,99157.59
2022-08-12T14:42:26.052Z,99163.16
2022-08-12T14:45:11.495Z,99169.53
2022-08-12T14:47:58.990Z,99173.97
2022-08-12T14:52:10.475Z,99175.53
2022-08-12T14:56:58.302Z,99175.53
2022-08-12T14:57:20.075Z,99154.03
2022-08-12T15:00:28.642Z,99158.03
2022-08-12T15:03:15.186Z,99151.25
2022-08-12T15:06:05.996Z,99156.03
2022-08-12T15:09:09.318Z,99142.09
2022-08-12T15:12:03.499Z,99149.25
2022-08-12T15:14:49.644Z,99145.69
2022-08-12T15:17:38.318Z,99146.44
2022-08-12T15:20:42.534Z,99142.88
2022-08-12T15:23:32.987Z,99137.75
2022-08-12T15:26:40.768Z,99142.53
2022-08-12T15:29:28.505Z,99137.75
2022-08-12T15:32:15.938Z,99141.31
2022-08-12T15:35:01.461Z,99134.19
2022-08-12T15:38:13.782Z,99141.31
2022-08-12T15:41:01.823Z,99138.53
2022-08-12T15:44:15.780Z,99142.97
2022-08-12T15:46:52.668Z,99134.63
2022-08-12T15:49:54.691Z,99133.41
2022-08-12T15:52:44.083Z,99130.94
2022-08-12T15:55:33.600Z,99132.72
2022-08-12T15:58:19.124Z,99143.06
2022-08-12T16:01:15.145Z,99139.06
2022-08-12T16:04:01.208Z,99139.06
2022-08-12T16:07:05.889Z,99132.72
2022-08-12T16:10:04.885Z,99131.91
2022-08-12T16:12:56.458Z,99132.72
2022-08-12T16:15:42.472Z,99135.50
2022-08-12T16:18:46.802Z,99133.50
2022-08-12T16:21:52.336Z,99127.16
2022-08-12T16:24:43.654Z,99129.13
2022-08-12T16:27:31.614Z,99135.50
2022-08-12T16:30:32.942Z,99129.13
2022-08-12T16:33:19.602Z,99130.34
2022-08-12T16:36:11.233Z,99131.13
2022-08-12T16:38:57.077Z,99126.03
2022-08-12T16:41:43.882Z,99123.22
2022-08-12T16:44:32.930Z,99127.22
2022-08-12T16:47:20.516Z,99118.44
2022-08-12T16:50:09.538Z,99118.88
2022-08-12T16:53:03.312Z,99114.88
2022-08-12T16:55:51.962Z,99113.28
2022-08-12T16:58:38.062Z,99120.84
2022-08-12T17:01:23.381Z,99106.91
2022-08-12T17:04:09.287Z,99107.72
2022-08-12T17:06:55.049Z,99109.69
2022-08-12T17:09:42.456Z,99106.91
2022-08-12T17:12:29.162Z,99104.13
2022-08-12T17:15:50.752Z,99102.56
2022-08-12T17:18:42.793Z,99109.34
2022-08-12T17:21:41.831Z,99104.22
2022-08-12T17:24:37.325Z,99102.22
2022-08-12T17:27:30.989Z,99090.63
2022-08-12T17:30:17.699Z,99094.66
2022-08-12T17:33:06.774Z,99091.06
2022-08-12T17:35:53.376Z,99099.41
2022-08-12T17:38:39.053Z,99094.31
2022-08-12T17:41:56.298Z,99102.66
2022-08-12T17:44:29.955Z,99105.44
2022-08-12T17:47:16.395Z,99113.03
2022-08-12T17:50:06.070Z,99109.00
2022-08-12T17:52:56.936Z,99104.22
2022-08-12T17:55:51.275Z,99111.78
2022-08-12T17:58:38.252Z,99109.00
2022-08-12T18:01:24.327Z,99107.47
2022-08-12T18:04:22.948Z,99115.00
2022-08-12T18:07:21.579Z,99120.94
2022-08-12T18:10:07.694Z,99120.16
2022-08-12T18:12:54.617Z,99117.81
2022-08-12T18:16:04.125Z,99121.81
2022-08-12T18:18:48.998Z,99126.16
2022-08-12T18:22:01.252Z,99124.19
2022-08-12T18:24:39.759Z,99137.75
2022-08-12T18:27:33.064Z,99131.38
2022-08-12T18:30:33.336Z,99136.94
2022-08-12T18:33:19.817Z,99136.19
2022-08-12T18:36:13.246Z,99143.34
2022-08-12T18:38:59.987Z,99142.53
2022-08-12T18:41:47.059Z,99159.16
2022-08-12T18:44:33.236Z,99156.81
2022-08-12T18:47:20.814Z,99148.09
2022-08-12T18:50:06.745Z,99156.13
2022-08-12T18:52:56.839Z,99164.81
2022-08-12T18:55:57.307Z,99163.25
2022-08-12T18:58:59.271Z,99155.69
2022-08-12T19:02:19.963Z,99172.38
2022-08-12T19:05:00.916Z,99169.25
2022-08-12T19:08:01.241Z,99169.25
2022-08-12T19:10:50.370Z,99175.63
2022-08-12T19:13:55.103Z,99180.41
2022-08-12T19:16:43.848Z,99176.06
2022-08-12T19:19:41.601Z,99180.84
2022-08-12T19:22:28.827Z,99178.50
2022-08-12T19:26:01.024Z,99180.06
2022-08-12T19:28:35.612Z,99184.06
2022-08-12T19:31:55.789Z,99183.28
2022-08-12T19:36:14.407Z,99182.50
2022-08-12T19:38:04.465Z,99184.06
2022-08-12T19:40:54.954Z,99179.69
2022-08-12T19:44:00.282Z,99177.72
2022-08-12T19:46:51.952Z,99175.38
2022-08-12T19:49:54.072Z,99180.94
2022-08-12T19:52:41.838Z,99175.38
2022-08-12T19:55:29.720Z,99180.50
2022-08-12T19:58:21.236Z,99180.94
2022-08-12T20:01:11.165Z,99178.16
2022-08-12T20:03:57.410Z,99179.38
2022-08-12T20:06:51.272Z,99186.16
2022-08-12T20:09:39.629Z,99184.94
2022-08-12T20:12:34.573Z,99187.22
2022-08-12T20:15:21.986Z,99182.50
2022-08-12T20:18:43.711Z,99180.16
2022-08-12T20:21:17.492Z,99173.00
2022-08-12T20:24:12.433Z,99171.47
2022-08-12T20:27:00.262Z,99177.03
2022-08-12T20:29:47.706Z,99177.03
2022-08-12T20:32:54.933Z,99181.81
2022-08-12T20:36:06.530Z,99176.25
2022-08-12T20:38:46.716Z,99179.03
2022-08-12T20:41:33.365Z,99187.38
2022-08-12T20:44:18.593Z,99179.03
2022-08-12T20:47:17.809Z,99175.44
2022-08-12T20:50:08.063Z,99181.00
2022-08-12T20:52:53.987Z,99181.00
2022-08-12T20:55:43.070Z,99181.00
2022-08-12T20:58:29.776Z,99181.81
2022-08-12T21:01:19.701Z,99177.44
2022-08-12T21:04:33.971Z,99183.03
2022-08-12T21:07:23.500Z,99184.59
2022-08-12T21:10:11.026Z,99181.81
2022-08-12T21:12:56.432Z,99185.81
2022-08-12T21:15:54.480Z,99185.81
2022-08-12T21:18:40.964Z,99185.03
2022-08-12T21:21:46.824Z,99187.38
2022-08-12T21:24:35.314Z,99186.16
2022-08-12T21:27:57.607Z,99180.25
2022-08-12T21:30:37.351Z,99186.16
2022-08-12T21:33:24.374Z,99184.59
2022-08-12T21:36:22.959Z,99183.38
2022-08-12T21:39:35.460Z,99181.81
2022-08-12T21:42:27.747Z,99183.38
2022-08-12T21:45:46.510Z,99186.59
2022-08-12T21:48:24.412Z,99184.59
2022-08-12T21:51:23.418Z,99177.81
2022-08-12T21:54:10.203Z,99182.59
2022-08-12T21:56:55.470Z,99183.38
2022-08-12T21:59:42.378Z,99198.06
2022-08-12T22:02:48.606Z,99186.59
2022-08-12T22:05:52.583Z,99187.38
2022-08-12T22:08:37.733Z,99187.38
2022-08-12T22:11:24.186Z,99200.88
2022-08-12T22:14:29.000Z,99190.19
2022-08-12T22:17:14.942Z,99197.72
2022-08-12T22:20:09.766Z,99202.94
2022-08-12T22:22:56.708Z,99203.75
2022-08-12T22:25:42.716Z,99196.94
2022-08-12T22:28:46.498Z,99202.53
2022-08-12T22:31:32.756Z,99197.38
2022-08-12T22:34:21.767Z,99193.81
2022-08-12T22:37:19.956Z,99199.38
2022-08-12T22:40:06.607Z,99195.41
2022-08-12T22:43:15.540Z,99184.25
2022-08-12T22:46:20.729Z,99187.38
2022-08-12T22:49:06.759Z,99190.94
2022-08-12T22:52:00.110Z,99196.16
2022-08-12T22:55:02.746Z,99198.53
2022-08-12T22:57:54.922Z,99201.31
2022-08-12T23:00:49.381Z,99187.03
2022-08-12T23:03:48.558Z,99196.16
2022-08-12T23:06:35.577Z,99192.59
2022-08-12T23:09:23.766Z,99192.97
2022-08-12T23:12:09.635Z,99190.19
2022-08-12T23:15:08.503Z,99195.81
2022-08-12T23:17:57.820Z,99195.41
2022-08-12T23:20:43.009Z,99197.72
2022-08-12T23:23:29.971Z,99187.38
2022-08-12T23:26:53.866Z,99188.59
2022-08-12T23:29:43.452Z,99191.38
2022-08-12T23:32:36.150Z,99195.41
2022-08-12T23:35:22.805Z,99190.25
2022-08-12T23:38:08.278Z,99188.25
2022-08-12T23:40:56.965Z,99193.81
2022-08-12T23:43:49.975Z,99178.34
2022-08-12T23:46:35.572Z,99178.69
2022-08-12T23:49:55.645Z,99175.09
2022-08-12T23:52:33.827Z,99180.66
2022-08-12T23:55:23.967Z,99179.53
2022-08-12T23:58:21.134Z,99176.31
